createdAt,value
2022-09-15T00:00:35.325Z,16.92
2022-09-15T00:03:29.138Z,14.15
2022-09-15T00:06:01.206Z,17.33
2022-09-15T00:08:36.083Z,15.82
2022-09-15T00:11:11.422Z,10.40
2022-09-15T00:13:43.453Z,14.07
2022-09-15T00:16:15.863Z,19.08
2022-09-15T00:18:49.758Z,11.23
2022-09-15T00:21:23.483Z,19.25
2022-09-15T00:23:59.219Z,18.48
2022-09-15T00:26:32.843Z,14.88
2022-09-15T00:29:06.160Z,21.25
2022-09-15T00:31:36.859Z,14.27
2022-09-15T00:34:07.328Z,15.97
2022-09-15T00:36:37.561Z,12.95
2022-09-15T00:39:10.288Z,14.65
2022-09-15T00:41:41.795Z,15.53
2022-09-15T00:44:41.431Z,14.77
2022-09-15T00:47:20.006Z,12.45
2022-09-15T00:49:58.417Z,14.20
2022-09-15T00:56:21.692Z,15.63
2022-09-15T00:58:57.619Z,21.53
2022-09-15T01:01:30.307Z,14.13
2022-09-15T01:04:01.816Z,19.27
2022-09-15T01:06:35.902Z,11.97
2022-09-15T01:09:11.975Z,13.60
2022-09-15T01:11:45.506Z,16.07
2022-09-15T01:14:15.871Z,14.30
2022-09-15T01:17:03.878Z,14.27
2022-09-15T01:20:04.592Z,11.23
2022-09-15T01:22:39.819Z,14.93
2022-09-15T01:25:12.799Z,11.07
2022-09-15T01:28:19.905Z,13.60
2022-09-15T01:31:01.926Z,22.80
2022-09-15T01:33:37.410Z,15.63
2022-09-15T01:36:16.444Z,22.73
2022-09-15T01:39:00.909Z,16.23
2022-09-15T01:41:36.959Z,15.07
2022-09-15T01:44:09.570Z,16.37
2022-09-15T01:46:50.832Z,13.20
2022-09-15T01:49:41.724Z,17.77
2022-09-15T01:52:19.390Z,11.73
2022-09-15T01:54:53.694Z,18.27
2022-09-15T01:57:24.624Z,18.90
2022-09-15T01:59:57.937Z,18.43
2022-09-15T02:02:35.752Z,15.63
2022-09-15T02:05:11.383Z,16.40
2022-09-15T02:07:47.957Z,16.73
2022-09-15T02:10:24.774Z,15.40
2022-09-15T02:12:59.869Z,15.00
2022-09-15T02:15:33.426Z,14.83
2022-09-15T02:18:10.418Z,20.97
2022-09-15T02:20:49.421Z,13.77
2022-09-15T02:23:28.729Z,20.67
2022-09-15T02:26:05.732Z,20.00
2022-09-15T02:28:39.456Z,13.53
2022-09-15T02:31:12.873Z,14.60
2022-09-15T02:33:50.064Z,14.33
2022-09-15T02:36:23.245Z,14.80
2022-09-15T02:38:58.477Z,14.73
2022-09-15T02:41:29.329Z,15.27
2022-09-15T02:43:59.437Z,12.00
2022-09-15T02:46:29.144Z,13.70
2022-09-15T02:49:01.476Z,12.13
2022-09-15T02:51:31.539Z,17.10
2022-09-15T02:54:01.255Z,11.13
2022-09-15T02:56:31.070Z,12.30
2022-09-15T02:59:01.588Z,16.80
2022-09-15T03:01:34.797Z,15.07
2022-09-15T03:04:08.284Z,14.97
2022-09-15T03:06:37.993Z,17.10
2022-09-15T03:09:10.408Z,12.60
2022-09-15T03:11:40.395Z,16.67
2022-09-15T03:14:10.522Z,16.73
2022-09-15T03:16:40.425Z,18.17
2022-09-15T03:19:12.842Z,17.43
2022-09-15T03:21:42.852Z,15.73
2022-09-15T03:24:15.333Z,18.90
2022-09-15T03:26:45.376Z,14.90
2022-09-15T03:29:15.684Z,14.50
2022-09-15T03:31:45.451Z,12.57
2022-09-15T03:34:18.449Z,15.00
2022-09-15T03:36:48.213Z,18.57
2022-09-15T03:39:18.455Z,14.57
2022-09-15T03:41:48.166Z,20.97
2022-09-15T03:44:18.019Z,14.17
2022-09-15T03:46:48.307Z,11.47
2022-09-15T03:49:20.670Z,15.40
2022-09-15T03:51:50.706Z,13.37
2022-09-15T03:54:21.031Z,16.67
2022-09-15T03:56:52.068Z,13.67
2022-09-15T03:59:23.211Z,16.23
2022-09-15T04:01:53.266Z,17.23
2022-09-15T04:04:25.689Z,19.73
2022-09-15T04:06:56.040Z,24.20
2022-09-15T04:09:25.888Z,16.23
2022-09-15T04:11:55.885Z,17.97
2022-09-15T04:14:26.288Z,14.43
2022-09-15T04:20:46.629Z,17.03
2022-09-15T04:23:16.737Z,15.57
2022-09-15T04:25:47.161Z,16.17
2022-09-15T04:28:17.307Z,19.70
2022-09-15T04:30:48.186Z,17.20
2022-09-15T04:33:18.361Z,12.53
2022-09-15T04:35:50.962Z,18.47
2022-09-15T04:38:21.328Z,18.43
2022-09-15T04:40:51.190Z,20.97
2022-09-15T04:43:21.153Z,15.07
2022-09-15T04:45:51.239Z,13.93
2022-09-15T04:48:21.194Z,19.00
2022-09-15T04:50:53.656Z,18.00
2022-09-15T04:54:29.307Z,15.30
2022-09-15T04:57:34.288Z,15.67
2022-09-15T05:00:07.570Z,12.23
2022-09-15T05:02:37.573Z,18.67
2022-09-15T05:05:08.928Z,16.97
2022-09-15T05:07:41.387Z,14.27
2022-09-15T05:10:13.173Z,12.60
2022-09-15T05:19:57.394Z,18.07
2022-09-15T05:22:27.822Z,16.43
2022-09-15T05:25:00.364Z,15.70
2022-09-15T05:27:33.798Z,16.37
2022-09-15T05:30:31.723Z,17.27
2022-09-15T05:32:53.693Z,13.70
2022-09-15T05:35:23.514Z,15.30
2022-09-15T05:37:53.245Z,18.83
2022-09-15T05:40:25.900Z,14.23
2022-09-15T05:42:55.640Z,19.83
2022-09-15T05:45:25.768Z,16.80
2022-09-15T05:47:55.504Z,10.60
2022-09-15T05:50:26.671Z,14.13
2022-09-15T05:52:57.861Z,23.57
2022-09-15T05:55:30.208Z,12.87
2022-09-15T05:58:00.294Z,12.13
2022-09-15T06:00:30.125Z,18.37
2022-09-15T06:02:59.901Z,26.10
2022-09-15T06:05:30.718Z,19.13
2022-09-15T06:08:00.581Z,18.77
2022-09-15T06:10:32.964Z,18.07
2022-09-15T06:13:03.163Z,19.93
2022-09-15T06:15:34.274Z,13.17
2022-09-15T06:18:04.701Z,11.93
2022-09-15T06:20:34.479Z,18.60
2022-09-15T06:23:04.722Z,14.00
2022-09-15T06:25:40.541Z,13.10
2022-09-15T06:28:11.086Z,11.73
2022-09-15T06:30:42.246Z,12.93
2022-09-15T06:33:12.329Z,17.07
2022-09-15T06:35:42.975Z,16.10
2022-09-15T06:38:16.024Z,16.83
2022-09-15T06:44:53.606Z,11.10
2022-09-15T06:47:24.148Z,22.73
2022-09-15T06:49:55.741Z,9.87
2022-09-15T06:52:25.786Z,7.77
2022-09-15T06:54:55.557Z,15.90
2022-09-15T06:57:25.326Z,10.43
2022-09-15T06:59:57.964Z,19.47
2022-09-15T07:02:27.833Z,16.00
2022-09-15T07:04:58.070Z,11.75
2022-09-15T07:07:27.915Z,12.03
2022-09-15T07:09:57.640Z,9.63
2022-09-15T07:12:27.682Z,12.90
2022-09-15T07:15:00.071Z,14.97
2022-09-15T07:17:31.835Z,8.35
2022-09-15T07:20:02.277Z,15.63
2022-09-15T07:22:32.336Z,8.33
2022-09-15T07:25:02.150Z,10.03
2022-09-15T07:27:31.989Z,7.80
2022-09-15T07:30:08.587Z,10.73
2022-09-15T07:32:38.405Z,10.63
2022-09-15T07:35:09.023Z,12.83
2022-09-15T07:37:38.860Z,8.70
2022-09-15T07:40:11.070Z,13.40
2022-09-15T07:42:45.001Z,10.63
2022-09-15T07:45:17.724Z,10.10
2022-09-15T07:47:47.463Z,10.88
2022-09-15T07:50:17.651Z,11.15
2022-09-15T07:52:47.421Z,7.80
2022-09-15T07:55:18.377Z,8.85
2022-09-15T07:57:48.421Z,10.93
2022-09-15T08:00:21.162Z,17.67
2022-09-15T08:02:51.251Z,7.53
2022-09-15T08:05:21.054Z,11.18
2022-09-15T08:07:50.837Z,13.02
2022-09-15T08:10:21.371Z,13.27
2022-09-15T08:12:51.191Z,7.95
2022-09-15T08:15:24.244Z,12.15
2022-09-15T08:17:54.829Z,10.43
2022-09-15T08:20:24.644Z,11.45
2022-09-15T08:22:55.678Z,14.00
2022-09-15T08:25:25.849Z,8.77
2022-09-15T08:27:56.485Z,10.13
2022-09-15T08:30:29.567Z,6.40
2022-09-15T08:32:59.407Z,7.22
2022-09-15T08:35:29.570Z,7.85
2022-09-15T08:37:59.831Z,10.68
2022-09-15T08:40:37.583Z,8.73
2022-09-15T08:43:18.650Z,15.05
2022-09-15T08:45:57.387Z,14.52
2022-09-15T08:48:32.074Z,15.52
2022-09-15T08:51:06.321Z,8.82
2022-09-15T08:53:40.607Z,7.38
2022-09-15T08:56:17.622Z,11.43
2022-09-15T08:58:48.700Z,12.70
2022-09-15T09:01:38.643Z,12.02
2022-09-15T09:04:27.529Z,6.95
2022-09-15T09:07:09.991Z,4.97
2022-09-15T09:09:48.245Z,8.05
2022-09-15T09:12:32.395Z,10.60
2022-09-15T09:15:17.578Z,9.98
2022-09-15T09:18:09.046Z,5.60
2022-09-15T09:20:50.542Z,7.70
2022-09-15T09:23:26.475Z,7.40
2022-09-15T09:25:58.799Z,7.57
2022-09-15T09:28:34.118Z,9.00
2022-09-15T09:31:08.452Z,5.20
2022-09-15T09:33:48.152Z,12.88
2022-09-15T09:36:18.920Z,6.32
2022-09-15T09:38:50.644Z,7.82
2022-09-15T09:41:26.827Z,8.07
2022-09-15T09:43:58.687Z,9.30
2022-09-15T09:46:29.035Z,5.35
2022-09-15T09:49:05.873Z,11.90
2022-09-15T09:51:39.922Z,14.55
2022-09-15T09:54:15.433Z,9.50
2022-09-15T09:56:53.377Z,13.65
2022-09-15T09:59:48.183Z,7.35
2022-09-15T10:02:50.394Z,7.70
2022-09-15T10:05:23.786Z,7.03
2022-09-15T10:07:53.769Z,6.68
2022-09-15T10:10:28.731Z,7.55
2022-09-15T10:12:59.569Z,7.07
2022-09-15T10:15:34.006Z,8.27
2022-09-15T10:18:05.250Z,5.72
2022-09-15T10:20:49.742Z,10.52
2022-09-15T10:23:28.703Z,6.15
2022-09-15T10:26:19.980Z,6.28
2022-09-15T10:29:15.946Z,11.63
2022-09-15T10:31:47.715Z,9.18
2022-09-15T10:34:33.147Z,6.28
2022-09-15T10:37:15.834Z,8.27
2022-09-15T10:39:54.524Z,10.82
2022-09-15T10:42:39.324Z,7.18
2022-09-15T10:45:20.201Z,10.07
2022-09-15T10:48:07.185Z,4.45
2022-09-15T10:50:51.406Z,7.13
2022-09-15T10:53:38.184Z,11.25
2022-09-15T10:56:19.719Z,3.55
2022-09-15T10:59:00.970Z,3.55
2022-09-15T11:01:48.340Z,4.22
2022-09-15T11:04:35.493Z,7.15
2022-09-15T11:07:12.267Z,7.13
2022-09-15T11:09:50.911Z,5.03
2022-09-15T11:12:34.687Z,7.35
2022-09-15T11:15:18.995Z,3.72
2022-09-15T11:18:03.761Z,2.55
2022-09-15T11:20:45.953Z,5.03
2022-09-15T11:23:21.636Z,7.65
2022-09-15T11:26:00.911Z,5.72
2022-09-15T11:28:36.949Z,4.55
2022-09-15T11:31:14.323Z,7.90
2022-09-15T11:33:49.914Z,8.30
2022-09-15T11:36:24.939Z,5.75
2022-09-15T11:38:59.358Z,8.38
2022-09-15T11:41:39.021Z,6.60
2022-09-15T11:44:17.657Z,11.93
2022-09-15T11:47:09.583Z,6.57
2022-09-15T11:50:15.666Z,7.65
2022-09-15T11:53:11.516Z,4.82
2022-09-15T11:55:46.261Z,5.82
2022-09-15T11:58:26.811Z,7.20
2022-09-15T12:01:01.641Z,5.07
2022-09-15T12:03:38.241Z,6.70
2022-09-15T12:06:14.693Z,6.20
2022-09-15T12:08:51.827Z,5.70
2022-09-15T12:11:24.979Z,8.25
2022-09-15T12:13:59.671Z,5.53
2022-09-15T12:16:30.844Z,5.93
2022-09-15T12:19:08.796Z,4.70
2022-09-15T12:21:48.640Z,5.72
2022-09-15T12:24:26.127Z,3.47
2022-09-15T12:26:56.375Z,9.20
2022-09-15T12:29:42.222Z,7.63
2022-09-15T12:32:24.702Z,6.90
2022-09-15T12:35:00.537Z,4.13
2022-09-15T12:37:39.794Z,7.82
2022-09-15T12:40:42.216Z,13.85
2022-09-15T12:43:31.850Z,7.60
2022-09-15T12:46:20.726Z,5.47
2022-09-15T12:48:54.008Z,7.88
2022-09-15T12:51:29.998Z,9.30
2022-09-15T12:54:04.735Z,6.22
2022-09-15T12:56:37.760Z,4.80
2022-09-15T12:59:09.630Z,4.53
2022-09-15T13:01:53.081Z,7.88
2022-09-15T13:04:52.101Z,5.60
2022-09-15T13:07:36.520Z,6.97
2022-09-15T13:10:33.423Z,7.00
2022-09-15T13:13:21.286Z,5.13
2022-09-15T13:15:57.814Z,5.78
2022-09-15T13:18:33.659Z,7.10
2022-09-15T13:21:20.179Z,4.38
2022-09-15T13:23:55.925Z,3.63
2022-09-15T13:26:30.496Z,6.53
2022-09-15T13:29:01.124Z,6.22
2022-09-15T13:31:41.577Z,3.35
2022-09-15T13:35:10.106Z,8.20
2022-09-15T13:38:21.190Z,9.32
2022-09-15T13:41:16.903Z,6.22
2022-09-15T13:44:12.745Z,16.70
2022-09-15T13:46:56.167Z,9.75
2022-09-15T13:49:51.679Z,3.67
2022-09-15T13:52:32.630Z,4.90
2022-09-15T13:55:28.176Z,5.93
2022-09-15T14:00:58.459Z,5.70
2022-09-15T14:03:37.190Z,9.43
2022-09-15T14:06:16.855Z,3.67
2022-09-15T14:08:51.496Z,3.50
2022-09-15T14:11:27.276Z,4.10
2022-09-15T14:13:59.358Z,5.40
2022-09-15T14:16:36.579Z,8.50
2022-09-15T14:19:27.662Z,5.00
2022-09-15T14:22:00.279Z,6.38
2022-09-15T14:24:33.035Z,4.38
2022-09-15T14:27:10.041Z,6.85
2022-09-15T14:29:43.921Z,10.18
2022-09-15T14:35:20.451Z,4.15
2022-09-15T14:37:58.118Z,4.38
2022-09-15T14:40:31.917Z,4.85
2022-09-15T14:43:03.064Z,4.82
2022-09-15T14:48:31.663Z,4.97
2022-09-15T14:51:05.278Z,6.82
2022-09-15T14:53:41.904Z,6.32
2022-09-15T14:56:19.995Z,3.90
2022-09-15T14:58:53.615Z,6.55
2022-09-15T15:01:26.702Z,3.28
2022-09-15T15:04:06.103Z,6.07
2022-09-15T15:06:40.869Z,4.47
2022-09-15T15:09:22.601Z,6.90
2022-09-15T15:11:55.724Z,4.30
2022-09-15T15:28:46.206Z,7.53
2022-09-15T15:31:19.190Z,2.40
2022-09-15T15:33:50.803Z,3.30
2022-09-15T15:36:24.885Z,3.22
2022-09-15T15:38:57.049Z,3.20
2022-09-15T15:41:29.723Z,3.85
2022-09-15T15:44:08.316Z,4.05
2022-09-15T15:46:54.297Z,5.88
2022-09-15T15:49:29.416Z,9.48
2022-09-15T15:52:00.732Z,5.38
2022-09-15T15:54:31.007Z,4.38
2022-09-15T15:57:22.953Z,3.78
2022-09-15T15:59:58.863Z,3.85
2022-09-15T16:02:30.123Z,5.07
2022-09-15T16:05:00.207Z,7.07
2022-09-15T16:07:33.478Z,4.03
2022-09-15T16:10:04.537Z,5.35
2022-09-15T16:12:35.556Z,7.93
2022-09-15T16:15:13.999Z,4.18
2022-09-15T16:17:47.023Z,8.40
2022-09-15T16:20:19.809Z,10.15
2022-09-15T16:22:50.594Z,4.57
2022-09-15T16:25:35.812Z,6.95
2022-09-15T16:28:06.952Z,3.05
2022-09-15T16:30:40.072Z,8.07
2022-09-15T16:33:12.978Z,4.40
2022-09-15T16:35:49.557Z,5.10
2022-09-15T16:38:20.639Z,5.00
2022-09-15T16:40:52.018Z,4.55
2022-09-15T16:43:24.273Z,3.67
2022-09-15T16:45:57.155Z,8.40
2022-09-15T16:48:30.070Z,4.50
2022-09-15T16:51:20.894Z,6.90
2022-09-15T16:53:53.826Z,3.90
2022-09-15T16:56:23.948Z,3.72
2022-09-15T16:58:59.562Z,6.70
2022-09-15T17:01:43.185Z,3.97
2022-09-15T17:04:19.238Z,4.07
2022-09-15T17:06:49.137Z,5.03
2022-09-15T17:09:20.667Z,3.75
2022-09-15T17:11:50.494Z,2.22
2022-09-15T17:14:20.587Z,6.57
2022-09-15T17:16:52.855Z,2.05
2022-09-15T17:19:25.506Z,4.18
2022-09-15T17:21:55.327Z,5.32
2022-09-15T17:24:25.868Z,6.15
2022-09-15T17:26:56.100Z,3.28
2022-09-15T17:29:26.801Z,4.90
2022-09-15T17:31:56.877Z,1.15
2022-09-15T17:34:29.679Z,2.08
2022-09-15T17:36:59.525Z,3.30
2022-09-15T17:39:29.612Z,4.43
2022-09-15T17:41:59.467Z,3.17
2022-09-15T17:44:30.596Z,2.40
2022-09-15T17:51:01.704Z,2.33
2022-09-15T17:53:31.899Z,3.38
2022-09-15T17:56:01.727Z,2.33
2022-09-15T17:58:31.965Z,2.10
2022-09-15T18:01:02.111Z,1.20
2022-09-15T18:03:35.008Z,3.22
2022-09-15T18:06:10.640Z,5.82
2022-09-15T18:08:40.531Z,3.70
2022-09-15T18:11:10.908Z,3.53
2022-09-15T18:13:40.879Z,2.67
2022-09-15T18:16:14.995Z,4.13
2022-09-15T18:18:45.274Z,4.47
2022-09-15T18:24:48.641Z,5.30
2022-09-15T18:27:18.863Z,3.70
2022-09-15T18:29:48.865Z,4.95
2022-09-15T18:32:19.135Z,2.35
2022-09-15T18:34:49.154Z,6.78
2022-09-15T18:37:19.867Z,3.90
2022-09-15T18:39:53.168Z,2.38
2022-09-15T18:45:40.167Z,3.25
2022-09-15T18:50:52.962Z,7.15
2022-09-15T18:53:28.668Z,11.75
2022-09-15T18:56:01.282Z,2.50
2022-09-15T18:58:31.842Z,6.38
2022-09-15T19:01:02.402Z,4.87
2022-09-15T19:03:33.081Z,6.35
2022-09-15T19:13:37.587Z,5.32
2022-09-15T19:16:09.379Z,5.43
2022-09-15T19:18:39.998Z,3.80
2022-09-15T19:21:12.915Z,5.55
2022-09-15T19:23:42.987Z,4.30
2022-09-15T19:26:16.982Z,5.68
2022-09-15T19:28:53.538Z,6.45
2022-09-15T19:31:24.128Z,3.28
2022-09-15T19:33:54.868Z,4.82
2022-09-15T19:36:29.187Z,3.85
2022-09-15T19:39:00.317Z,4.30
2022-09-15T19:41:30.560Z,5.93
2022-09-15T19:44:03.801Z,4.88
2022-09-15T19:46:33.942Z,7.38
2022-09-15T19:49:04.689Z,3.58
2022-09-15T19:51:34.963Z,2.30
2022-09-15T19:54:04.988Z,7.38
2022-09-15T19:56:35.013Z,4.03
2022-09-15T19:59:08.625Z,3.63
2022-09-15T20:01:38.661Z,3.23
2022-09-15T20:07:33.836Z,4.93
2022-09-15T20:10:04.098Z,5.30
2022-09-15T20:12:34.353Z,3.70
2022-09-15T20:15:07.558Z,5.63
2022-09-15T20:17:41.711Z,6.18
2022-09-15T20:20:13.614Z,3.33
2022-09-15T20:22:44.066Z,5.40
2022-09-15T20:25:14.135Z,6.23
2022-09-15T20:27:44.821Z,5.20
2022-09-15T20:30:17.832Z,3.33
2022-09-15T20:32:47.952Z,6.30
2022-09-15T20:35:18.034Z,4.63
2022-09-15T20:44:40.332Z,6.80
2022-09-15T20:47:13.083Z,4.73
2022-09-15T20:49:42.941Z,4.10
2022-09-15T20:52:13.105Z,3.30
2022-09-15T20:54:43.286Z,3.97
2022-09-15T20:57:13.636Z,6.25
2022-09-15T20:59:43.742Z,2.97
2022-09-15T21:02:16.259Z,3.43
2022-09-15T21:04:46.846Z,5.03
2022-09-15T21:07:17.481Z,8.33
2022-09-15T21:09:47.511Z,3.40
2022-09-15T21:16:00.893Z,3.30
2022-09-15T21:18:36.039Z,4.43
2022-09-15T21:21:08.796Z,5.97
2022-09-15T21:23:42.896Z,7.07
2022-09-15T21:26:15.512Z,3.87
2022-09-15T21:28:46.140Z,7.33
2022-09-15T21:31:19.082Z,3.63
2022-09-15T21:33:52.154Z,2.53
2022-09-15T21:36:27.656Z,6.97
2022-09-15T21:38:59.935Z,8.35
2022-09-15T21:41:31.787Z,3.35
2022-09-15T21:44:01.909Z,4.37
2022-09-15T21:46:33.631Z,4.97
2022-09-15T21:49:06.524Z,8.43
2022-09-15T21:51:36.326Z,3.67
2022-09-15T21:54:06.760Z,3.53
2022-09-15T21:56:36.592Z,4.83
2022-09-15T21:59:08.195Z,6.60
2022-09-15T22:01:38.247Z,7.97
2022-09-15T22:04:11.903Z,4.77
2022-09-15T22:06:44.844Z,4.63
2022-09-15T22:09:18.063Z,4.73
2022-09-15T22:11:49.099Z,3.00
2022-09-15T22:14:21.453Z,4.90
2022-09-15T22:16:51.954Z,6.93
2022-09-15T22:19:24.646Z,4.03
2022-09-15T22:21:55.537Z,3.53
2022-09-15T22:24:26.251Z,10.13
2022-09-15T22:26:56.538Z,3.37
2022-09-15T22:29:26.688Z,4.83
2022-09-15T22:31:57.176Z,3.53
2022-09-15T22:34:30.112Z,5.70
2022-09-15T22:37:00.403Z,2.13
2022-09-15T22:39:57.425Z,8.50
2022-09-15T22:42:20.523Z,3.17
2022-09-15T22:44:50.598Z,3.90
2022-09-15T22:47:20.579Z,5.43
2022-09-15T22:49:52.949Z,6.00
2022-09-15T22:52:23.022Z,5.53
2022-09-15T22:54:52.903Z,4.70
2022-09-15T22:57:22.684Z,5.70
2022-09-15T22:59:52.734Z,5.50
2022-09-15T23:02:23.341Z,5.67
2022-09-15T23:04:57.515Z,4.33
2022-09-15T23:07:29.583Z,3.60
2022-09-15T23:10:01.429Z,2.13
2022-09-15T23:12:37.344Z,4.17
2022-09-15T23:15:12.009Z,6.03
2022-09-15T23:17:44.457Z,5.00
2022-09-15T23:20:17.997Z,5.17
2022-09-15T23:22:49.110Z,3.37
2022-09-15T23:25:20.566Z,5.53
2022-09-15T23:27:52.537Z,5.30
2022-09-15T23:30:25.038Z,4.83
2022-09-15T23:32:56.542Z,4.53
2022-09-15T23:35:32.525Z,6.03
2022-09-15T23:38:04.075Z,3.93
2022-09-15T23:40:35.360Z,11.13
2022-09-15T23:43:06.970Z,8.00
2022-09-15T23:45:38.245Z,5.90
2022-09-15T23:48:11.488Z,8.90
2022-09-15T23:50:47.229Z,4.33
2022-09-15T23:53:18.782Z,2.87
2022-09-15T23:55:51.300Z,7.83
2022-09-15T23:58:23.606Z,5.30
